Iver Foss — WYE6442 — position and weather

sailwx.info

Track history (hours):
 
Tides and Currents Weather Stations Pressure Air Temp Water Temp Dewpoint Dewpoint Depression Visibility Wind Speed Wind Dir Waves Ship Positions

Iver Foss

Owner: FOSS MARITIME CO, SEATTLE, WA. More information available from US FCC via Universal Licensing System and Coast Guard Vessel Documentation Center.

Last reported at 2016-Jun-22 02:00 UTC. Time now 2016-Jun-26 19:12 UTC.
Position N 55°30' W 159°06'.

Type: Tug. MMSI: 368351000.

Wind from 250 at 10 knots

Waves 1.0 meters (3 feet)

Barometer 1021.0 mb
Air temperature 15.0 ° C
Water temperature 12.2 ° C

Date/timePositionNaut miles runAvg speedWind from/ knotsBaromVisibWave heightAir tempDewpointWater temp
2016-Jun-22 02:00N 55°30' W 159°06'31211.6 250 / 101021.0 1.015.0 12.2
2016-Jun-20 23:00N 55°48' W 149°54'   270 / 131019.0 5.4 1.012.5 11.1
2016-Jun-17 09:33N 51°09' W 127°50'1211.8
2016-Jun-17 08:32N 51°01' W 127°35'1111.7
2016-Jun-17 07:33N 50°54' W 127°21'8011.4
2016-Jun-17 00:32N 50°20' W 125°26'1212.0
2016-Jun-16 23:33N 50°09' W 125°21'1010.1
2016-Jun-16 22:33N 50°01' W 125°13'1110.5
2016-Jun-16 21:33N 49°54' W 125°00'1211.7
2016-Jun-16 20:33N 49°46' W 124°46'1111.4
2016-Jun-16 19:33N 49°39' W 124°32'3611.5
2016-Jun-16 16:26N 49°18' W 123°48'1011.4
2016-Jun-16 15:33N 49°12' W 123°36'1111.3
2016-Jun-16 14:33N 49°05' W 123°22'1110.8
2016-Jun-16 13:33N 48°58' W 123°10'1110.6
2016-Jun-16 12:33N 48°51' W 122°57'1210.7
2016-Jun-16 11:27N 48°43' W 122°44'9 9.9
2016-Jun-16 10:33N 48°34' W 122°45'3410.1
2016-Jun-16 07:12N 48°01' W 122°36'710.3
2016-Jun-16 06:34N 47°56' W 122°30'1110.9
2016-Jun-16 05:33N 47°45' W 122°25'6 5.7
2016-Jun-16 04:34N 47°40' W 122°23'1 1.1
2016-Jun-16 03:33N 47°39' W 122°22'0 0.0
2016-Jun-16 02:33N 47°39' W 122°22'0 0.0
2016-Jun-16 01:33N 47°39' W 122°22'0 0.0
2016-Jun-16 00:33N 47°39' W 122°22'0 0.0
2016-Jun-15 23:33N 47°39' W 122°22'0 0.0
2016-Jun-15 22:33N 47°39' W 122°22'0 0.0
2016-Jun-15 21:33N 47°39' W 122°22'0 0.0
2016-Jun-15 20:33N 47°39' W 122°22'0 0.0
2016-Jun-15 19:33N 47°39' W 122°22'0 0.0
2016-Jun-15 18:33N 47°39' W 122°22'0 0.0
2016-Jun-15 17:33N 47°39' W 122°22'0 0.0
2016-Jun-15 16:33N 47°39' W 122°22'0 0.0
2016-Jun-15 15:33N 47°39' W 122°22'0 0.0
2016-Jun-15 14:33N 47°39' W 122°22'0 0.0
2016-Jun-15 13:33N 47°39' W 122°22'0 0.0
2016-Jun-15 12:34N 47°39' W 122°22'0 0.0
2016-Jun-15 11:33N 47°39' W 122°22'0 0.0
2016-Jun-15 10:33N 47°39' W 122°22'0 0.0
2016-Jun-15 09:33N 47°39' W 122°22'0 0.0
2016-Jun-15 08:33N 47°39' W 122°22'0 0.0
2016-Jun-15 07:33N 47°39' W 122°22'0 0.0
2016-Jun-15 06:33N 47°39' W 122°22'0 0.0
2016-Jun-15 05:33N 47°39' W 122°22'0 0.0
2016-Jun-15 04:33N 47°39' W 122°22'0 0.0
2016-Jun-15 03:33N 47°39' W 122°22'0 0.0
2016-Jun-15 02:33N 47°39' W 122°22'0 0.0
2016-Jun-15 01:33N 47°39' W 122°22'0 0.0
2016-Jun-15 00:33N 47°39' W 122°22'0 0.0
2016-Jun-14 23:34N 47°39' W 122°22'1 1.4
2016-Jun-14 22:34N 47°40' W 122°24'2 2.4
2016-Jun-14 21:33N 47°38' W 122°23'0 0.3
2016-Jun-14 20:32N 47°38' W 122°23'0 0.0
2016-Jun-14 19:32N 47°38' W 122°23'0 0.0
2016-Jun-14 18:32N 47°38' W 122°23'0 0.0
2016-Jun-14 17:32N 47°38' W 122°23'0 0.0
2016-Jun-14 16:32N 47°38' W 122°23'0 0.0
2016-Jun-14 15:32N 47°38' W 122°23'0 0.0
2016-Jun-14 14:32N 47°38' W 122°23'0 0.0
2016-Jun-14 13:31N 47°38' W 122°23'0 0.0
2016-Jun-14 12:32N 47°38' W 122°23'0 0.0
2016-Jun-14 11:32N 47°38' W 122°23'0 0.0
2016-Jun-14 10:32N 47°38' W 122°23'0 0.0
2016-Jun-14 09:31N 47°38' W 122°23'0 0.0
2016-Jun-14 08:32N 47°38' W 122°23'0 0.0
2016-Jun-14 07:32N 47°38' W 122°23'0 0.0
2016-Jun-14 05:31N 47°38' W 122°23'0 0.0
2016-Jun-14 04:32N 47°38' W 122°23'0 0.0
2016-Jun-14 03:32N 47°38' W 122°23'0 0.0
2016-Jun-14 02:33N 47°38' W 122°23'0 0.0
2016-Jun-14 01:31N 47°38' W 122°23'0 0.0
2016-Jun-14 00:31N 47°38' W 122°23'0 0.0
2016-Jun-13 23:31N 47°38' W 122°23'0 0.0
2016-Jun-13 22:32N 47°38' W 122°23'0 0.0
2016-Jun-13 21:31N 47°38' W 122°23'0 0.0
2016-Jun-13 20:34N 47°38' W 122°23'0 0.0
2016-Jun-13 19:31N 47°38' W 122°23'0 0.0
2016-Jun-13 18:31N 47°38' W 122°23'0 0.0
2016-Jun-13 17:28N 47°38' W 122°23'0 0.0
2016-Jun-13 16:31N 47°38' W 122°23'0 0.0
2016-Jun-13 15:31N 47°38' W 122°23'0 0.0
2016-Jun-13 14:33N 47°38' W 122°23'0 0.0
2016-Jun-13 13:33N 47°38' W 122°23'0 0.0
2016-Jun-13 12:32N 47°38' W 122°23'0 0.0
2016-Jun-13 11:33N 47°38' W 122°23'0 0.0
2016-Jun-13 10:32N 47°38' W 122°23'0 0.0
2016-Jun-13 09:32N 47°38' W 122°23'0 0.0
2016-Jun-13 08:32N 47°38' W 122°23'0 0.0
2016-Jun-13 07:33N 47°38' W 122°23'0 0.0
2016-Jun-13 06:33N 47°38' W 122°23'0 0.0
2016-Jun-13 05:33N 47°38' W 122°23'0 0.0
2016-Jun-13 04:33N 47°38' W 122°23'0 0.0
2016-Jun-13 03:33N 47°38' W 122°23'0 0.0
2016-Jun-13 02:32N 47°38' W 122°23'0 0.0
2016-Jun-13 01:29N 47°38' W 122°23'0 0.0
2016-Jun-13 00:32N 47°38' W 122°23'0 0.0
2016-Jun-12 23:32N 47°38' W 122°23'3 2.8
2016-Jun-12 22:33N 47°35' W 122°21'0 0.0
2016-Jun-12 21:33N 47°35' W 122°21'0 0.0
2016-Jun-12 20:31N 47°35' W 122°21'0 0.0
2016-Jun-12 19:33N 47°35' W 122°21'0 0.0
2016-Jun-12 18:34N 47°35' W 122°21'0 0.0
2016-Jun-12 17:33N 47°35' W 122°21'3 2.7
2016-Jun-12 16:33N 47°38' W 122°23'0 0.1
2016-Jun-12 15:33N 47°38' W 122°23'0 0.0
2016-Jun-12 14:33N 47°38' W 122°23'0 0.0
2016-Jun-12 13:33N 47°38' W 122°23'0 0.0
2016-Jun-12 12:33N 47°38' W 122°23'0 0.0
2016-Jun-12 11:33N 47°38' W 122°23'0 0.0
2016-Jun-12 10:33N 47°38' W 122°23'0 0.0
2016-Jun-12 09:33N 47°38' W 122°23'0 0.0
2016-Jun-12 08:33N 47°38' W 122°23'0 0.0
2016-Jun-12 07:33N 47°38' W 122°23'0 0.0
2016-Jun-12 06:33N 47°38' W 122°23'0 0.0
2016-Jun-12 04:33N 47°38' W 122°23'3 2.7
2016-Jun-12 03:32N 47°35' W 122°21'3 2.8
2016-Jun-12 02:33N 47°38' W 122°23'  
Track history (hours):
 
Tides and Currents Weather Stations Pressure Air Temp Water Temp Dewpoint Dewpoint Depression Visibility Wind Speed Wind Dir Waves Ship Positions

Iver Foss

Owner: FOSS MARITIME CO, SEATTLE, WA. More information available from US FCC via Universal Licensing System and Coast Guard Vessel Documentation Center.

Last reported at 2016-Jun-22 02:00 UTC. Time now 2016-Jun-26 19:12 UTC.
Position N 55°30' W 159°06'.

Type: Tug. MMSI: 368351000.

Wind from 250 at 10 knots

Waves 1.0 meters (3 feet)

Barometer 1021.0 mb
Air temperature 15.0 ° C
Water temperature 12.2 ° C

Date/timePositionNaut miles runAvg speedWind from/ knotsBaromVisibWave heightAir tempDewpointWater temp
2016-Jun-22 02:00N 55°30' W 159°06'31211.6 250 / 101021.0 1.015.0 12.2
2016-Jun-20 23:00N 55°48' W 149°54'   270 / 131019.0 5.4 1.012.5 11.1
2016-Jun-17 09:33N 51°09' W 127°50'1211.8
2016-Jun-17 08:32N 51°01' W 127°35'1111.7
2016-Jun-17 07:33N 50°54' W 127°21'8011.4
2016-Jun-17 00:32N 50°20' W 125°26'1212.0
2016-Jun-16 23:33N 50°09' W 125°21'1010.1
2016-Jun-16 22:33N 50°01' W 125°13'1110.5
2016-Jun-16 21:33N 49°54' W 125°00'1211.7
2016-Jun-16 20:33N 49°46' W 124°46'1111.4
2016-Jun-16 19:33N 49°39' W 124°32'3611.5
2016-Jun-16 16:26N 49°18' W 123°48'1011.4
2016-Jun-16 15:33N 49°12' W 123°36'1111.3
2016-Jun-16 14:33N 49°05' W 123°22'1110.8
2016-Jun-16 13:33N 48°58' W 123°10'1110.6
2016-Jun-16 12:33N 48°51' W 122°57'1210.7
2016-Jun-16 11:27N 48°43' W 122°44'9 9.9
2016-Jun-16 10:33N 48°34' W 122°45'3410.1
2016-Jun-16 07:12N 48°01' W 122°36'710.3
2016-Jun-16 06:34N 47°56' W 122°30'1110.9
2016-Jun-16 05:33N 47°45' W 122°25'6 5.7
2016-Jun-16 04:34N 47°40' W 122°23'1 1.1
2016-Jun-16 03:33N 47°39' W 122°22'0 0.0
2016-Jun-16 02:33N 47°39' W 122°22'0 0.0
2016-Jun-16 01:33N 47°39' W 122°22'0 0.0
2016-Jun-16 00:33N 47°39' W 122°22'0 0.0
2016-Jun-15 23:33N 47°39' W 122°22'0 0.0
2016-Jun-15 22:33N 47°39' W 122°22'0 0.0
2016-Jun-15 21:33N 47°39' W 122°22'0 0.0
2016-Jun-15 20:33N 47°39' W 122°22'0 0.0
2016-Jun-15 19:33N 47°39' W 122°22'0 0.0
2016-Jun-15 18:33N 47°39' W 122°22'0 0.0
2016-Jun-15 17:33N 47°39' W 122°22'0 0.0
2016-Jun-15 16:33N 47°39' W 122°22'0 0.0
2016-Jun-15 15:33N 47°39' W 122°22'0 0.0
2016-Jun-15 14:33N 47°39' W 122°22'0 0.0
2016-Jun-15 13:33N 47°39' W 122°22'0 0.0
2016-Jun-15 12:34N 47°39' W 122°22'0 0.0
2016-Jun-15 11:33N 47°39' W 122°22'0 0.0
2016-Jun-15 10:33N 47°39' W 122°22'0 0.0
2016-Jun-15 09:33N 47°39' W 122°22'0 0.0
2016-Jun-15 08:33N 47°39' W 122°22'0 0.0
2016-Jun-15 07:33N 47°39' W 122°22'0 0.0
2016-Jun-15 06:33N 47°39' W 122°22'0 0.0
2016-Jun-15 05:33N 47°39' W 122°22'0 0.0
2016-Jun-15 04:33N 47°39' W 122°22'0 0.0
2016-Jun-15 03:33N 47°39' W 122°22'0 0.0
2016-Jun-15 02:33N 47°39' W 122°22'0 0.0
2016-Jun-15 01:33N 47°39' W 122°22'0 0.0
2016-Jun-15 00:33N 47°39' W 122°22'0 0.0
2016-Jun-14 23:34N 47°39' W 122°22'1 1.4
2016-Jun-14 22:34N 47°40' W 122°24'2 2.4
2016-Jun-14 21:33N 47°38' W 122°23'0 0.3
2016-Jun-14 20:32N 47°38' W 122°23'0 0.0
2016-Jun-14 19:32N 47°38' W 122°23'0 0.0
2016-Jun-14 18:32N 47°38' W 122°23'0 0.0
2016-Jun-14 17:32N 47°38' W 122°23'0 0.0
2016-Jun-14 16:32N 47°38' W 122°23'0 0.0
2016-Jun-14 15:32N 47°38' W 122°23'0 0.0
2016-Jun-14 14:32N 47°38' W 122°23'0 0.0
2016-Jun-14 13:31N 47°38' W 122°23'0 0.0
2016-Jun-14 12:32N 47°38' W 122°23'0 0.0
2016-Jun-14 11:32N 47°38' W 122°23'0 0.0
2016-Jun-14 10:32N 47°38' W 122°23'0 0.0
2016-Jun-14 09:31N 47°38' W 122°23'0 0.0
2016-Jun-14 08:32N 47°38' W 122°23'0 0.0
2016-Jun-14 07:32N 47°38' W 122°23'0 0.0
2016-Jun-14 05:31N 47°38' W 122°23'0 0.0
2016-Jun-14 04:32N 47°38' W 122°23'0 0.0
2016-Jun-14 03:32N 47°38' W 122°23'0 0.0
2016-Jun-14 02:33N 47°38' W 122°23'0 0.0
2016-Jun-14 01:31N 47°38' W 122°23'0 0.0
2016-Jun-14 00:31N 47°38' W 122°23'0 0.0
2016-Jun-13 23:31N 47°38' W 122°23'0 0.0
2016-Jun-13 22:32N 47°38' W 122°23'0 0.0
2016-Jun-13 21:31N 47°38' W 122°23'0 0.0
2016-Jun-13 20:34N 47°38' W 122°23'0 0.0
2016-Jun-13 19:31N 47°38' W 122°23'0 0.0
2016-Jun-13 18:31N 47°38' W 122°23'0 0.0
2016-Jun-13 17:28N 47°38' W 122°23'0 0.0
2016-Jun-13 16:31N 47°38' W 122°23'0 0.0
2016-Jun-13 15:31N 47°38' W 122°23'0 0.0
2016-Jun-13 14:33N 47°38' W 122°23'0 0.0
2016-Jun-13 13:33N 47°38' W 122°23'0 0.0
2016-Jun-13 12:32N 47°38' W 122°23'0 0.0
2016-Jun-13 11:33N 47°38' W 122°23'0 0.0
2016-Jun-13 10:32N 47°38' W 122°23'0 0.0
2016-Jun-13 09:32N 47°38' W 122°23'0 0.0
2016-Jun-13 08:32N 47°38' W 122°23'0 0.0
2016-Jun-13 07:33N 47°38' W 122°23'0 0.0
2016-Jun-13 06:33N 47°38' W 122°23'0 0.0
2016-Jun-13 05:33N 47°38' W 122°23'0 0.0
2016-Jun-13 04:33N 47°38' W 122°23'0 0.0
2016-Jun-13 03:33N 47°38' W 122°23'0 0.0
2016-Jun-13 02:32N 47°38' W 122°23'0 0.0
2016-Jun-13 01:29N 47°38' W 122°23'0 0.0
2016-Jun-13 00:32N 47°38' W 122°23'0 0.0
2016-Jun-12 23:32N 47°38' W 122°23'3 2.8
2016-Jun-12 22:33N 47°35' W 122°21'0 0.0
2016-Jun-12 21:33N 47°35' W 122°21'0 0.0
2016-Jun-12 20:31N 47°35' W 122°21'0 0.0
2016-Jun-12 19:33N 47°35' W 122°21'0 0.0
2016-Jun-12 18:34N 47°35' W 122°21'0 0.0
2016-Jun-12 17:33N 47°35' W 122°21'3 2.7
2016-Jun-12 16:33N 47°38' W 122°23'0 0.1
2016-Jun-12 15:33N 47°38' W 122°23'0 0.0
2016-Jun-12 14:33N 47°38' W 122°23'0 0.0
2016-Jun-12 13:33N 47°38' W 122°23'0 0.0
2016-Jun-12 12:33N 47°38' W 122°23'0 0.0
2016-Jun-12 11:33N 47°38' W 122°23'0 0.0
2016-Jun-12 10:33N 47°38' W 122°23'0 0.0
2016-Jun-12 09:33N 47°38' W 122°23'0 0.0
2016-Jun-12 08:33N 47°38' W 122°23'0 0.0
2016-Jun-12 07:33N 47°38' W 122°23'0 0.0
2016-Jun-12 06:33N 47°38' W 122°23'0 0.0
2016-Jun-12 04:33N 47°38' W 122°23'3 2.7
2016-Jun-12 03:32N 47°35' W 122°21'3 2.8
2016-Jun-12 02:33N 47°38' W 122°23'  

Dump ship's entire track history